sensor_id;sensor_type;location;lat;lon;timestamp;pressure;altitude;pressure_sealevel;temperature;humidity
51958;BME280;41120;51.820;20.804;2022-07-23T00:01:44;99514.66;;;21.25;88.87
51958;BME280;41120;51.820;20.804;2022-07-23T00:04:12;99517.88;;;21.20;89.16
51958;BME280;41120;51.820;20.804;2022-07-23T00:07:00;99524.09;;;21.27;88.59
51958;BME280;41120;51.820;20.804;2022-07-23T00:09:37;99517.75;;;21.28;88.72
51958;BME280;41120;51.820;20.804;2022-07-23T00:12:13;99525.75;;;21.28;88.77
51958;BME280;41120;51.820;20.804;2022-07-23T00:14:39;99526.78;;;21.27;89.05
51958;BME280;41120;51.820;20.804;2022-07-23T00:17:19;99523.94;;;21.29;88.99
51958;BME280;41120;51.820;20.804;2022-07-23T00:19:47;99530.72;;;21.31;88.37
51958;BME280;41120;51.820;20.804;2022-07-23T00:22:30;99523.09;;;21.28;88.69
51958;BME280;41120;51.820;20.804;2022-07-23T00:25:00;99522.00;;;21.23;88.86
51958;BME280;41120;51.820;20.804;2022-07-23T00:27:34;99520.66;;;21.12;89.38
51958;BME280;41120;51.820;20.804;2022-07-23T00:30:08;99522.19;;;20.91;90.86
51958;BME280;41120;51.820;20.804;2022-07-23T00:32:51;99527.31;;;20.78;91.80
51958;BME280;41120;51.820;20.804;2022-07-23T00:35:23;99523.25;;;20.67;93.18
51958;BME280;41120;51.820;20.804;2022-07-23T00:37:49;99524.72;;;20.55;93.55
51958;BME280;41120;51.820;20.804;2022-07-23T00:40:32;99524.59;;;20.48;94.26
51958;BME280;41120;51.820;20.804;2022-07-23T00:43:07;99518.69;;;20.38;94.34
51958;BME280;41120;51.820;20.804;2022-07-23T00:45:34;99523.25;;;20.29;94.83
51958;BME280;41120;51.820;20.804;2022-07-23T00:48:16;99515.94;;;20.31;94.87
51958;BME280;41120;51.820;20.804;2022-07-23T00:50:47;99516.91;;;20.30;94.69
51958;BME280;41120;51.820;20.804;2022-07-23T00:53:21;99517.19;;;20.36;94.43
51958;BME280;41120;51.820;20.804;2022-07-23T00:55:48;99524.72;;;20.32;94.46
51958;BME280;41120;51.820;20.804;2022-07-23T00:58:36;99518.31;;;20.26;94.91
51958;BME280;41120;51.820;20.804;2022-07-23T01:01:07;99519.03;;;19.97;98.06
51958;BME280;41120;51.820;20.804;2022-07-23T01:03:53;99518.63;;;19.46;100.00
51958;BME280;41120;51.820;20.804;2022-07-23T01:06:20;99510.94;;;19.20;100.00
51958;BME280;41120;51.820;20.804;2022-07-23T01:08:48;99515.31;;;19.36;100.00
51958;BME280;41120;51.820;20.804;2022-07-23T01:11:27;99509.78;;;19.54;99.71
51958;BME280;41120;51.820;20.804;2022-07-23T01:14:21;99514.56;;;19.89;97.73
51958;BME280;41120;51.820;20.804;2022-07-23T01:16:49;99512.09;;;19.88;98.13
51958;BME280;41120;51.820;20.804;2022-07-23T01:19:44;99510.66;;;19.77;98.44
51958;BME280;41120;51.820;20.804;2022-07-23T01:22:12;99514.03;;;19.71;98.80
51958;BME280;41120;51.820;20.804;2022-07-23T01:24:45;99514.81;;;19.40;100.00
51958;BME280;41120;51.820;20.804;2022-07-23T01:27:14;99528.88;;;19.01;100.00
51958;BME280;41120;51.820;20.804;2022-07-23T01:30:12;99521.97;;;18.68;100.00
51958;BME280;41120;51.820;20.804;2022-07-23T01:32:43;99525.81;;;18.57;100.00
51958;BME280;41120;51.820;20.804;2022-07-23T01:35:28;99521.38;;;18.41;100.00
51958;BME280;41120;51.820;20.804;2022-07-23T01:37:53;99522.00;;;18.35;100.00
51958;BME280;41120;51.820;20.804;2022-07-23T01:40:21;99522.00;;;18.35;100.00
51958;BME280;41120;51.820;20.804;2022-07-23T01:42:57;99519.03;;;18.46;100.00
51958;BME280;41120;51.820;20.804;2022-07-23T01:45:49;99518.34;;;18.52;100.00
51958;BME280;41120;51.820;20.804;2022-07-23T01:48:20;99523.16;;;18.57;100.00
51958;BME280;41120;51.820;20.804;2022-07-23T01:50:47;99524.97;;;18.56;100.00
51958;BME280;41120;51.820;20.804;2022-07-23T01:53:19;99522.00;;;18.35;100.00
51958;BME280;41120;51.820;20.804;2022-07-23T01:55:46;99518.38;;;18.20;100.00
51958;BME280;41120;51.820;20.804;2022-07-23T01:58:15;99506.75;;;18.04;100.00
51958;BME280;41120;51.820;20.804;2022-07-23T02:01:06;99499.63;;;17.96;100.00
51958;BME280;41120;51.820;20.804;2022-07-23T02:03:39;99503.44;;;17.94;100.00
51958;BME280;41120;51.820;20.804;2022-07-23T02:06:16;99513.38;;;17.84;100.00
51958;BME280;41120;51.820;20.804;2022-07-23T02:08:42;99512.19;;;17.78;100.00
51958;BME280;41120;51.820;20.804;2022-07-23T02:11:14;99510.50;;;17.77;100.00
51958;BME280;41120;51.820;20.804;2022-07-23T02:13:44;99513.34;;;17.75;100.00
51958;BME280;41120;51.820;20.804;2022-07-23T02:16:12;99512.22;;;17.86;100.00
51958;BME280;41120;51.820;20.804;2022-07-23T02:18:39;99508.41;;;17.81;100.00
51958;BME280;41120;51.820;20.804;2022-07-23T02:21:31;99503.38;;;17.69;100.00
51958;BME280;41120;51.820;20.804;2022-07-23T02:23:59;99508.81;;;17.68;100.00
51958;BME280;41120;51.820;20.804;2022-07-23T02:26:26;99501.22;;;17.65;100.00
51958;BME280;41120;51.820;20.804;2022-07-23T02:28:58;99501.19;;;17.48;100.00
51958;BME280;41120;51.820;20.804;2022-07-23T02:31:28;99497.69;;;17.40;100.00
51958;BME280;41120;51.820;20.804;2022-07-23T02:34:02;99498.97;;;17.27;100.00
51958;BME280;41120;51.820;20.804;2022-07-23T02:36:34;99501.41;;;17.21;100.00
51958;BME280;41120;51.820;20.804;2022-07-23T02:39:10;99485.19;;;17.16;100.00
51958;BME280;41120;51.820;20.804;2022-07-23T02:41:37;99496.22;;;17.11;100.00
51958;BME280;41120;51.820;20.804;2022-07-23T02:44:04;99493.59;;;17.11;100.00
51958;BME280;41120;51.820;20.804;2022-07-23T02:46:36;99492.28;;;17.07;100.00
51958;BME280;41120;51.820;20.804;2022-07-23T02:49:07;99494.41;;;17.11;100.00
51958;BME280;41120;51.820;20.804;2022-07-23T02:51:50;99491.28;;;17.08;100.00
51958;BME280;41120;51.820;20.804;2022-07-23T02:54:17;99493.38;;;17.04;100.00
51958;BME280;41120;51.820;20.804;2022-07-23T02:56:50;99493.22;;;16.98;100.00
51958;BME280;41120;51.820;20.804;2022-07-23T02:59:29;99496.66;;;16.90;100.00
51958;BME280;41120;51.820;20.804;2022-07-23T03:02:03;99496.78;;;16.88;100.00
51958;BME280;41120;51.820;20.804;2022-07-23T03:04:33;99495.50;;;16.93;100.00
51958;BME280;41120;51.820;20.804;2022-07-23T03:07:08;99497.50;;;16.99;100.00
51958;BME280;41120;51.820;20.804;2022-07-23T03:09:40;99495.84;;;16.98;100.00
51958;BME280;41120;51.820;20.804;2022-07-23T03:12:06;99496.22;;;17.03;100.00
51958;BME280;41120;51.820;20.804;2022-07-23T03:14:36;99488.94;;;17.05;100.00
51958;BME280;41120;51.820;20.804;2022-07-23T03:17:14;99492.28;;;17.07;100.00
51958;BME280;41120;51.820;20.804;2022-07-23T03:19:41;99491.63;;;17.13;100.00
51958;BME280;41120;51.820;20.804;2022-07-23T03:22:07;99490.00;;;17.20;100.00
51958;BME280;41120;51.820;20.804;2022-07-23T03:24:51;99485.53;;;17.21;100.00
51958;BME280;41120;51.820;20.804;2022-07-23T03:27:31;99487.91;;;17.40;100.00
51958;BME280;41120;51.820;20.804;2022-07-23T03:30:19;99490.81;;;17.63;100.00
51958;BME280;41120;51.820;20.804;2022-07-23T03:32:51;99490.13;;;17.77;100.00
51958;BME280;41120;51.820;20.804;2022-07-23T03:35:26;99491.28;;;17.59;100.00
51958;BME280;41120;51.820;20.804;2022-07-23T03:37:52;99483.88;;;17.79;100.00
51958;BME280;41120;51.820;20.804;2022-07-23T03:40:25;99494.50;;;18.11;100.00
51958;BME280;41120;51.820;20.804;2022-07-23T03:42:51;99494.66;;;18.59;100.00
51958;BME280;41120;51.820;20.804;2022-07-23T03:45:27;99499.97;;;18.59;100.00
51958;BME280;41120;51.820;20.804;2022-07-23T03:47:55;99500.78;;;18.59;100.00
51958;BME280;41120;51.820;20.804;2022-07-23T03:50:32;99509.72;;;18.50;100.00
51958;BME280;41120;51.820;20.804;2022-07-23T03:53:05;99503.41;;;18.68;100.00
51958;BME280;41120;51.820;20.804;2022-07-23T03:55:38;99505.09;;;18.69;100.00
51958;BME280;41120;51.820;20.804;2022-07-23T03:58:08;99504.91;;;18.62;100.00
51958;BME280;41120;51.820;20.804;2022-07-23T04:00:35;99510.81;;;18.97;100.00
51958;BME280;41120;51.820;20.804;2022-07-23T04:03:20;99503.94;;;19.27;100.00
51958;BME280;41120;51.820;20.804;2022-07-23T04:05:46;99506.53;;;19.35;100.00
51958;BME280;41120;51.820;20.804;2022-07-23T04:08:13;99502.78;;;19.61;100.00
51958;BME280;41120;51.820;20.804;2022-07-23T04:10:44;99500.00;;;19.85;100.00
51958;BME280;41120;51.820;20.804;2022-07-23T04:13:11;99503.84;;;20.44;100.00
51958;BME280;41120;51.820;20.804;2022-07-23T04:15:45;99508.44;;;20.73;100.00
51958;BME280;41120;51.820;20.804;2022-07-23T04:18:17;99504.91;;;21.32;99.39
51958;BME280;41120;51.820;20.804;2022-07-23T04:20:46;99510.66;;;21.87;95.87
51958;BME280;41120;51.820;20.804;2022-07-23T04:23:14;99506.88;;;22.17;94.91
51958;BME280;41120;51.820;20.804;2022-07-23T04:25:40;99500.50;;;22.18;95.76
51958;BME280;41120;51.820;20.804;2022-07-23T04:28:07;99505.56;;;22.28;93.87
51958;BME280;41120;51.820;20.804;2022-07-23T04:30:35;99510.00;;;22.21;95.50
51958;BME280;41120;51.820;20.804;2022-07-23T04:33:01;99510.38;;;22.18;98.20
51958;BME280;41120;51.820;20.804;2022-07-23T04:35:40;99506.63;;;22.62;92.93
51958;BME280;41120;51.820;20.804;2022-07-23T04:38:06;99512.16;;;22.89;90.96
51958;BME280;41120;51.820;20.804;2022-07-23T04:40:50;99519.31;;;23.16;88.27
51958;BME280;41120;51.820;20.804;2022-07-23T04:43:26;99516.75;;;23.36;86.79
51958;BME280;41120;51.820;20.804;2022-07-23T04:45:54;99518.06;;;23.67;86.30
51958;BME280;41120;51.820;20.804;2022-07-23T04:48:33;99520.41;;;23.77;85.52
51958;BME280;41120;51.820;20.804;2022-07-23T04:51:05;99509.78;;;24.30;84.11
51958;BME280;41120;51.820;20.804;2022-07-23T04:53:41;99517.78;;;24.83;81.74
51958;BME280;41120;51.820;20.804;2022-07-23T04:56:07;99514.56;;;25.39;79.13
51958;BME280;41120;51.820;20.804;2022-07-23T04:58:35;99511.09;;;26.09;74.46
51958;BME280;41120;51.820;20.804;2022-07-23T05:01:11;99526.78;;;27.06;71.72
51958;BME280;41120;51.820;20.804;2022-07-23T05:03:38;99527.84;;;27.72;69.16
51958;BME280;41120;51.820;20.804;2022-07-23T05:06:10;99524.66;;;28.35;66.36
51958;BME280;41120;51.820;20.804;2022-07-23T05:08:41;99531.25;;;28.75;64.98
51958;BME280;41120;51.820;20.804;2022-07-23T05:11:17;99535.13;;;29.14;62.21
51958;BME280;41120;51.820;20.804;2022-07-23T05:13:45;99536.97;;;29.26;61.19
51958;BME280;41120;51.820;20.804;2022-07-23T05:16:12;99539.34;;;29.91;58.94
51958;BME280;41120;51.820;20.804;2022-07-23T05:18:54;99538.09;;;29.82;58.30
51958;BME280;41120;51.820;20.804;2022-07-23T05:21:21;99536.94;;;30.57;56.28
51958;BME280;41120;51.820;20.804;2022-07-23T05:23:54;99537.28;;;30.44;55.51
51958;BME280;41120;51.820;20.804;2022-07-23T05:26:23;99541.22;;;31.09;52.96
51958;BME280;41120;51.820;20.804;2022-07-23T05:28:49;99533.91;;;30.87;52.63
51958;BME280;41120;51.820;20.804;2022-07-23T05:31:16;99543.41;;;30.73;52.28
51958;BME280;41120;51.820;20.804;2022-07-23T05:33:54;99538.09;;;31.17;51.72
51958;BME280;41120;51.820;20.804;2022-07-23T05:36:21;99526.81;;;31.25;51.70
51958;BME280;41120;51.820;20.804;2022-07-23T05:38:51;99526.75;;;31.64;52.04
51958;BME280;41120;51.820;20.804;2022-07-23T05:41:18;99526.88;;;32.02;48.41
51958;BME280;41120;51.820;20.804;2022-07-23T05:43:46;99524.47;;;32.05;49.16
51958;BME280;41120;51.820;20.804;2022-07-23T05:46:12;99533.66;;;32.69;45.79
51958;BME280;41120;51.820;20.804;2022-07-23T05:48:38;99524.81;;;32.83;45.62
51958;BME280;41120;51.820;20.804;2022-07-23T05:51:06;99522.75;;;32.58;46.20
51958;BME280;41120;51.820;20.804;2022-07-23T05:53:33;99522.00;;;33.21;44.94
51958;BME280;41120;51.820;20.804;2022-07-23T05:56:06;99522.00;;;33.21;45.18
51958;BME280;41120;51.820;20.804;2022-07-23T05:58:33;99531.31;;;33.40;45.80
51958;BME280;41120;51.820;20.804;2022-07-23T06:00:59;99531.69;;;33.59;45.53
51958;BME280;41120;51.820;20.804;2022-07-23T06:03:37;99534.72;;;33.83;43.24
51958;BME280;41120;51.820;20.804;2022-07-23T06:06:22;99534.84;;;32.83;47.73
51958;BME280;41120;51.820;20.804;2022-07-23T06:08:56;99533.97;;;33.25;46.17
51958;BME280;41120;51.820;20.804;2022-07-23T06:11:29;99527.88;;;32.55;47.98
51958;BME280;41120;51.820;20.804;2022-07-23T06:13:55;99534.13;;;31.96;48.21
51958;BME280;41120;51.820;20.804;2022-07-23T06:16:21;99532.66;;;33.33;47.28
51958;BME280;41120;51.820;20.804;2022-07-23T06:18:53;99535.53;;;33.94;44.61
51958;BME280;41120;51.820;20.804;2022-07-23T06:21:20;99535.28;;;33.96;45.53
51958;BME280;41120;51.820;20.804;2022-07-23T06:23:53;99533.00;;;32.99;47.98
51958;BME280;41120;51.820;20.804;2022-07-23T06:26:38;99535.66;;;32.89;48.61
51958;BME280;41120;51.820;20.804;2022-07-23T06:29:21;99526.28;;;33.07;48.23
51958;BME280;41120;51.820;20.804;2022-07-23T06:31:56;99531.97;;;33.63;46.28
51958;BME280;41120;51.820;20.804;2022-07-23T06:34:33;99535.59;;;33.26;46.28
51958;BME280;41120;51.820;20.804;2022-07-23T06:37:11;99536.16;;;34.17;45.64
51958;BME280;41120;51.820;20.804;2022-07-23T06:39:43;99528.53;;;32.72;46.75
51958;BME280;41120;51.820;20.804;2022-07-23T06:42:32;99527.97;;;33.13;46.36
51958;BME280;41120;51.820;20.804;2022-07-23T06:44:58;99527.78;;;32.12;48.97
51958;BME280;41120;51.820;20.804;2022-07-23T06:47:39;99523.28;;;33.71;45.68
51958;BME280;41120;51.820;20.804;2022-07-23T06:50:15;99522.56;;;33.23;46.87
51958;BME280;41120;51.820;20.804;2022-07-23T06:52:49;99515.94;;;32.98;45.19
51958;BME280;41120;51.820;20.804;2022-07-23T06:59:15;99518.47;;;34.35;46.01
51958;BME280;41120;51.820;20.804;2022-07-23T07:01:50;99524.41;;;34.57;44.70
51958;BME280;41120;51.820;20.804;2022-07-23T07:04:17;99517.97;;;35.28;42.64
51958;BME280;41120;51.820;20.804;2022-07-23T07:07:09;99520.66;;;34.17;44.45
51958;BME280;41120;51.820;20.804;2022-07-23T07:10:07;99516.56;;;34.09;46.19
51958;BME280;41120;51.820;20.804;2022-07-23T07:12:33;99517.38;;;34.30;42.77
51958;BME280;41120;51.820;20.804;2022-07-23T07:15:21;99522.81;;;34.30;43.23
51958;BME280;41120;51.820;20.804;2022-07-23T07:17:56;99511.88;;;33.59;45.97
51958;BME280;41120;51.820;20.804;2022-07-23T07:20:28;99513.00;;;34.60;42.67
51958;BME280;41120;51.820;20.804;2022-07-23T07:22:56;99507.56;;;33.99;43.16
51958;BME280;41120;51.820;20.804;2022-07-23T07:25:40;99503.47;;;33.81;44.03
51958;BME280;41120;51.820;20.804;2022-07-23T07:28:16;99504.34;;;32.60;44.91
51958;BME280;41120;51.820;20.804;2022-07-23T07:30:47;99505.91;;;31.92;48.47
51958;BME280;41120;51.820;20.804;2022-07-23T07:33:36;99505.03;;;32.13;47.54
51958;BME280;41120;51.820;20.804;2022-07-23T07:36:18;99498.44;;;32.31;50.24
51958;BME280;41120;51.820;20.804;2022-07-23T07:38:44;99505.38;;;31.90;48.48
51958;BME280;41120;51.820;20.804;2022-07-23T07:41:11;99502.50;;;31.74;53.37
51958;BME280;41120;51.820;20.804;2022-07-23T07:43:40;99502.88;;;31.56;54.37
51958;BME280;41120;51.820;20.804;2022-07-23T07:46:16;99497.13;;;31.52;57.07
51958;BME280;41120;51.820;20.804;2022-07-23T07:48:56;99503.44;;;31.58;50.84
51958;BME280;41120;51.820;20.804;2022-07-23T07:51:42;99507.44;;;31.55;52.98
51958;BME280;41120;51.820;20.804;2022-07-23T07:54:08;99500.34;;;31.76;51.74
51958;BME280;41120;51.820;20.804;2022-07-23T07:56:35;99504.31;;;31.42;52.32
51958;BME280;41120;51.820;20.804;2022-07-23T07:59:05;99492.22;;;31.27;57.16
51958;BME280;41120;51.820;20.804;2022-07-23T08:01:33;99511.22;;;31.32;52.89
51958;BME280;41120;51.820;20.804;2022-07-23T08:04:10;99505.06;;;30.93;55.62
51958;BME280;41120;51.820;20.804;2022-07-23T08:06:36;99504.81;;;30.95;54.74
51958;BME280;41120;51.820;20.804;2022-07-23T08:09:16;99508.75;;;31.09;51.34
51958;BME280;41120;51.820;20.804;2022-07-23T08:11:43;99497.19;;;30.75;57.55
51958;BME280;41120;51.820;20.804;2022-07-23T08:14:13;99509.75;;;30.64;57.81
51958;BME280;41120;51.820;20.804;2022-07-23T08:16:58;99510.66;;;31.08;51.29
51958;BME280;41120;51.820;20.804;2022-07-23T08:19:41;99499.09;;;31.13;53.04
51958;BME280;41120;51.820;20.804;2022-07-23T08:22:19;99506.38;;;31.12;50.99
51958;BME280;41120;51.820;20.804;2022-07-23T08:24:58;99508.63;;;31.21;54.60
51958;BME280;41120;51.820;20.804;2022-07-23T08:27:39;99509.31;;;31.33;55.38
51958;BME280;41120;51.820;20.804;2022-07-23T08:30:37;99510.84;;;31.24;54.28
51958;BME280;41120;51.820;20.804;2022-07-23T08:33:20;99505.69;;;31.22;51.11
51958;BME280;41120;51.820;20.804;2022-07-23T08:35:58;99504.09;;;31.04;52.59
51958;BME280;41120;51.820;20.804;2022-07-23T08:38:24;99514.88;;;31.21;53.95
51958;BME280;41120;51.820;20.804;2022-07-23T08:40:53;99514.56;;;31.18;52.16
51958;BME280;41120;51.820;20.804;2022-07-23T08:43:25;99517.38;;;31.06;52.62
51958;BME280;41120;51.820;20.804;2022-07-23T08:45:56;99522.66;;;30.79;49.33
51958;BME280;41120;51.820;20.804;2022-07-23T08:48:41;99516.34;;;31.07;51.94
51958;BME280;41120;51.820;20.804;2022-07-23T08:51:08;99514.09;;;30.65;50.93
51958;BME280;41120;51.820;20.804;2022-07-23T08:53:38;99511.22;;;31.10;51.81
51958;BME280;41120;51.820;20.804;2022-07-23T08:56:05;99515.44;;;31.01;49.82
51958;BME280;41120;51.820;20.804;2022-07-23T08:58:39;99517.66;;;31.26;50.28
51958;BME280;41120;51.820;20.804;2022-07-23T09:01:06;99512.09;;;30.77;51.11
51958;BME280;41120;51.820;20.804;2022-07-23T09:03:35;99500.53;;;30.82;53.35
51958;BME280;41120;51.820;20.804;2022-07-23T09:06:04;99497.13;;;30.69;51.85
51958;BME280;41120;51.820;20.804;2022-07-23T09:08:42;99508.84;;;30.75;46.38
51958;BME280;41120;51.820;20.804;2022-07-23T09:11:15;99504.25;;;31.14;48.66
51958;BME280;41120;51.820;20.804;2022-07-23T09:14:00;99504.50;;;31.13;48.38
51958;BME280;41120;51.820;20.804;2022-07-23T09:16:37;99505.00;;;31.32;50.09
51958;BME280;41120;51.820;20.804;2022-07-23T09:19:06;99509.44;;;31.21;48.34
51958;BME280;41120;51.820;20.804;2022-07-23T09:21:36;99505.19;;;31.03;45.83
51958;BME280;41120;51.820;20.804;2022-07-23T09:24:09;99510.34;;;31.05;50.75
51958;BME280;41120;51.820;20.804;2022-07-23T09:26:49;99506.06;;;31.09;51.64
51958;BME280;41120;51.820;20.804;2022-07-23T09:29:24;99497.94;;;31.09;50.79
51958;BME280;41120;51.820;20.804;2022-07-23T09:32:16;99500.00;;;31.02;48.68
51958;BME280;41120;51.820;20.804;2022-07-23T09:35:00;99493.00;;;31.45;50.71
51958;BME280;41120;51.820;20.804;2022-07-23T09:37:32;99496.38;;;31.13;45.94
51958;BME280;41120;51.820;20.804;2022-07-23T09:40:06;99498.22;;;31.29;46.91
51958;BME280;41120;51.820;20.804;2022-07-23T09:42:33;99489.66;;;31.16;49.10
51958;BME280;41120;51.820;20.804;2022-07-23T09:45:00;99493.03;;;31.06;46.01
51958;BME280;41120;51.820;20.804;2022-07-23T09:47:29;99492.91;;;30.96;43.69
51958;BME280;41120;51.820;20.804;2022-07-23T09:50:14;99488.03;;;30.76;45.13
51958;BME280;41120;51.820;20.804;2022-07-23T09:53:01;99486.34;;;30.36;44.86
51958;BME280;41120;51.820;20.804;2022-07-23T09:55:34;99485.25;;;30.32;45.26
51958;BME280;41120;51.820;20.804;2022-07-23T09:58:08;99480.06;;;30.47;50.12
51958;BME280;41120;51.820;20.804;2022-07-23T10:00:43;99476.88;;;30.72;51.41
51958;BME280;41120;51.820;20.804;2022-07-23T10:03:33;99481.28;;;31.17;49.99
51958;BME280;41120;51.820;20.804;2022-07-23T10:06:17;99481.19;;;31.07;45.33
51958;BME280;41120;51.820;20.804;2022-07-23T10:08:44;99476.31;;;30.87;44.54
51958;BME280;41120;51.820;20.804;2022-07-23T10:11:24;99472.56;;;30.88;44.91
51958;BME280;41120;51.820;20.804;2022-07-23T10:13:59;99467.94;;;30.16;45.98
51958;BME280;41120;51.820;20.804;2022-07-23T10:16:37;99460.63;;;30.16;47.56
51958;BME280;41120;51.820;20.804;2022-07-23T10:19:16;99465.09;;;30.39;46.80
51958;BME280;41120;51.820;20.804;2022-07-23T10:21:52;99453.47;;;30.22;48.86
51958;BME280;41120;51.820;20.804;2022-07-23T10:30:20;99455.06;;;30.96;49.76
51958;BME280;41120;51.820;20.804;2022-07-23T10:33:00;99458.09;;;30.82;47.69
51958;BME280;41120;51.820;20.804;2022-07-23T10:35:58;99456.97;;;30.78;45.34
51958;BME280;41120;51.820;20.804;2022-07-23T10:41:30;99442.31;;;30.74;55.27
51958;BME280;41120;51.820;20.804;2022-07-23T10:44:32;99453.44;;;30.95;46.47
51958;BME280;41120;51.820;20.804;2022-07-23T10:47:11;99445.38;;;30.78;47.99
51958;BME280;41120;51.820;20.804;2022-07-23T10:49:49;99451.94;;;30.65;45.74
51958;BME280;41120;51.820;20.804;2022-07-23T10:52:33;99460.88;;;30.65;45.74
51958;BME280;41120;51.820;20.804;2022-07-23T10:57:51;99442.94;;;30.59;45.87
51958;BME280;41120;51.820;20.804;2022-07-23T11:00:27;99449.38;;;30.36;44.81
51958;BME280;41120;51.820;20.804;2022-07-23T11:03:32;99441.19;;;30.31;52.14
51958;BME280;41120;51.820;20.804;2022-07-23T11:06:01;99450.75;;;30.56;50.41
51958;BME280;41120;51.820;20.804;2022-07-23T11:08:29;99441.63;;;30.62;50.16
51958;BME280;41120;51.820;20.804;2022-07-23T11:16:11;99449.78;;;30.67;49.30
51958;BME280;41120;51.820;20.804;2022-07-23T11:19:03;99439.06;;;30.72;48.44
51958;BME280;41120;51.820;20.804;2022-07-23T11:21:46;99448.34;;;30.59;48.49
51958;BME280;41120;51.820;20.804;2022-07-23T11:24:19;99447.59;;;30.64;45.24
51958;BME280;41120;51.820;20.804;2022-07-23T11:26:51;99451.13;;;30.64;46.44
51958;BME280;41120;51.820;20.804;2022-07-23T11:29:40;99447.53;;;30.59;42.58
51958;BME280;41120;51.820;20.804;2022-07-23T11:32:28;99446.59;;;30.70;41.90
51958;BME280;41120;51.820;20.804;2022-07-23T11:34:55;99441.56;;;30.57;42.85
51958;BME280;41120;51.820;20.804;2022-07-23T11:37:39;99451.34;;;30.63;47.79
51958;BME280;41120;51.820;20.804;2022-07-23T11:40:09;99435.41;;;30.61;48.59
51958;BME280;41120;51.820;20.804;2022-07-23T11:43:07;99432.13;;;30.59;51.03
51958;BME280;41120;51.820;20.804;2022-07-23T11:45:47;99427.72;;;30.53;42.88
51958;BME280;41120;51.820;20.804;2022-07-23T11:48:22;99421.06;;;29.88;44.53
51958;BME280;41120;51.820;20.804;2022-07-23T11:50:52;99418.19;;;30.28;46.38
51958;BME280;41120;51.820;20.804;2022-07-23T11:53:44;99411.06;;;30.39;45.08
51958;BME280;41120;51.820;20.804;2022-07-23T11:56:12;99409.81;;;30.47;49.60
51958;BME280;41120;51.820;20.804;2022-07-23T11:58:38;99409.53;;;30.65;54.39
51958;BME280;41120;51.820;20.804;2022-07-23T12:01:14;99415.94;;;30.81;43.90
51958;BME280;41120;51.820;20.804;2022-07-23T12:03:55;99407.19;;;30.74;48.64
51958;BME280;41120;51.820;20.804;2022-07-23T12:06:41;99407.53;;;30.78;43.91
51958;BME280;41120;51.820;20.804;2022-07-23T12:09:14;99407.25;;;30.79;45.74
51958;BME280;41120;51.820;20.804;2022-07-23T12:11:59;99409.38;;;30.77;43.74
51958;BME280;41120;51.820;20.804;2022-07-23T12:14:25;99401.78;;;30.74;44.90
51958;BME280;41120;51.820;20.804;2022-07-23T12:17:15;99396.75;;;30.61;47.85
51958;BME280;41120;51.820;20.804;2022-07-23T12:19:52;99382.91;;;30.35;43.72
51958;BME280;41120;51.820;20.804;2022-07-23T12:22:26;99388.81;;;30.15;47.24
51958;BME280;41120;51.820;20.804;2022-07-23T12:25:25;99383.72;;;30.19;47.72
51958;BME280;41120;51.820;20.804;2022-07-23T12:28:17;99387.59;;;30.06;47.38
51958;BME280;41120;51.820;20.804;2022-07-23T12:31:02;99375.81;;;29.95;46.49
51958;BME280;41120;51.820;20.804;2022-07-23T12:33:45;99373.63;;;29.92;47.78
51958;BME280;41120;51.820;20.804;2022-07-23T12:36:19;99365.09;;;30.00;47.18
51958;BME280;41120;51.820;20.804;2022-07-23T12:38:48;99364.28;;;30.17;45.27
51958;BME280;41120;51.820;20.804;2022-07-23T12:41:23;99358.28;;;30.32;41.59
51958;BME280;41120;51.820;20.804;2022-07-23T12:44:18;99349.75;;;30.62;43.10
51958;BME280;41120;51.820;20.804;2022-07-23T12:46:51;99341.19;;;30.92;45.87
51958;BME280;41120;51.820;20.804;2022-07-23T12:49:27;99336.34;;;30.94;47.04
51958;BME280;41120;51.820;20.804;2022-07-23T12:51:58;99347.50;;;30.98;39.87
51958;BME280;41120;51.820;20.804;2022-07-23T12:54:32;99338.75;;;30.68;41.11
51958;BME280;41120;51.820;20.804;2022-07-23T12:57:00;99328.28;;;30.99;42.27
51958;BME280;41120;51.820;20.804;2022-07-23T12:59:32;99326.56;;;31.42;40.36
51958;BME280;41120;51.820;20.804;2022-07-23T13:02:01;99328.19;;;31.16;40.48
51958;BME280;41120;51.820;20.804;2022-07-23T13:04:30;99317.97;;;31.23;39.42
51958;BME280;41120;51.820;20.804;2022-07-23T13:07:03;99324.44;;;30.68;43.55
51958;BME280;41120;51.820;20.804;2022-07-23T13:09:40;99321.25;;;30.98;41.42
51958;BME280;41120;51.820;20.804;2022-07-23T13:12:07;99330.84;;;30.84;40.62
51958;BME280;41120;51.820;20.804;2022-07-23T13:14:48;99321.31;;;30.81;42.71
51958;BME280;41120;51.820;20.804;2022-07-23T13:17:27;99314.47;;;30.74;45.03
51958;BME280;41120;51.820;20.804;2022-07-23T13:19:55;99322.72;;;30.62;40.68
51958;BME280;41120;51.820;20.804;2022-07-23T13:22:27;99312.34;;;30.76;42.19
51958;BME280;41120;51.820;20.804;2022-07-23T13:24:54;99316.31;;;30.90;43.81
51958;BME280;41120;51.820;20.804;2022-07-23T13:27:21;99320.47;;;30.76;42.02
51958;BME280;41120;51.820;20.804;2022-07-23T13:29:47;99317.25;;;30.57;41.59
51958;BME280;41120;51.820;20.804;2022-07-23T13:32:14;99314.66;;;30.67;43.39
51958;BME280;41120;51.820;20.804;2022-07-23T13:34:45;99319.56;;;30.70;42.53
51958;BME280;41120;51.820;20.804;2022-07-23T13:37:11;99318.72;;;30.42;42.08
51958;BME280;41120;51.820;20.804;2022-07-23T13:39:42;99318.13;;;30.01;43.16
51958;BME280;41120;51.820;20.804;2022-07-23T13:42:14;99318.66;;;29.81;45.09
51958;BME280;41120;51.820;20.804;2022-07-23T13:44:52;99305.56;;;29.56;44.16
51958;BME280;41120;51.820;20.804;2022-07-23T13:47:37;99307.19;;;29.57;47.49